sensor_id;sensor_type;location;lat;lon;timestamp;pressure;altitude;pressure_sealevel;temperature;humidity
31285;BME280;56605;51.516;6.742;2023-01-31T00:00:43;102267.34;;;2.25;100.00
31285;BME280;56605;51.516;6.742;2023-01-31T00:03:08;102270.81;;;2.25;100.00
31285;BME280;56605;51.516;6.742;2023-01-31T00:05:33;102273.31;;;2.28;100.00
31285;BME280;56605;51.516;6.742;2023-01-31T00:07:59;102272.22;;;2.33;100.00
31285;BME280;56605;51.516;6.742;2023-01-31T00:10:25;102267.69;;;2.36;100.00
31285;BME280;56605;51.516;6.742;2023-01-31T00:12:51;102278.06;;;2.39;100.00
31285;BME280;56605;51.516;6.742;2023-01-31T00:15:16;102274.44;;;2.42;100.00
31285;BME280;56605;51.516;6.742;2023-01-31T00:17:42;102268.06;;;2.46;100.00
31285;BME280;56605;51.516;6.742;2023-01-31T00:20:09;102269.59;;;2.50;100.00
31285;BME280;56605;51.516;6.742;2023-01-31T00:22:35;102268.00;;;2.48;100.00
31285;BME280;56605;51.516;6.742;2023-01-31T00:25:00;102269.78;;;2.47;100.00
31285;BME280;56605;51.516;6.742;2023-01-31T00:27:26;102277.59;;;2.49;100.00
31285;BME280;56605;51.516;6.742;2023-01-31T00:29:51;102280.22;;;2.49;100.00
31285;BME280;56605;51.516;6.742;2023-01-31T00:32:16;102280.50;;;2.44;100.00
31285;BME280;56605;51.516;6.742;2023-01-31T00:34:41;102275.50;;;2.38;100.00
31285;BME280;56605;51.516;6.742;2023-01-31T00:37:07;102273.88;;;2.35;100.00
31285;BME280;56605;51.516;6.742;2023-01-31T00:39:32;102280.06;;;2.34;100.00
31285;BME280;56605;51.516;6.742;2023-01-31T00:41:57;102269.75;;;2.30;100.00
31285;BME280;56605;51.516;6.742;2023-01-31T00:44:23;102285.66;;;2.28;100.00
31285;BME280;56605;51.516;6.742;2023-01-31T00:46:48;102273.59;;;2.22;100.00
31285;BME280;56605;51.516;6.742;2023-01-31T00:49:13;102269.50;;;2.17;100.00
31285;BME280;56605;51.516;6.742;2023-01-31T00:51:38;102276.00;;;2.09;100.00
31285;BME280;56605;51.516;6.742;2023-01-31T00:54:04;102266.47;;;2.07;100.00
31285;BME280;56605;51.516;6.742;2023-01-31T00:56:29;102273.50;;;2.06;100.00
31285;BME280;56605;51.516;6.742;2023-01-31T00:58:54;102279.84;;;2.02;100.00
31285;BME280;56605;51.516;6.742;2023-01-31T01:01:23;102276.53;;;1.98;100.00
31285;BME280;56605;51.516;6.742;2023-01-31T01:03:48;102280.13;;;1.96;100.00
31285;BME280;56605;51.516;6.742;2023-01-31T01:06:14;102274.94;;;1.94;100.00
31285;BME280;56605;51.516;6.742;2023-01-31T01:08:40;102278.44;;;1.95;100.00
31285;BME280;56605;51.516;6.742;2023-01-31T01:11:09;102280.13;;;1.96;100.00
31285;BME280;56605;51.516;6.742;2023-01-31T01:13:35;102278.44;;;1.95;100.00
31285;BME280;56605;51.516;6.742;2023-01-31T01:16:09;102277.56;;;1.94;100.00
31285;BME280;56605;51.516;6.742;2023-01-31T01:18:35;102269.81;;;1.91;100.00
31285;BME280;56605;51.516;6.742;2023-01-31T01:21:09;102269.91;;;1.89;100.00
31285;BME280;56605;51.516;6.742;2023-01-31T01:23:36;102277.88;;;1.88;100.00
31285;BME280;56605;51.516;6.742;2023-01-31T01:26:02;102278.72;;;1.88;100.00
31285;BME280;56605;51.516;6.742;2023-01-31T01:28:27;102288.19;;;1.93;100.00
31285;BME280;56605;51.516;6.742;2023-01-31T01:30:53;102279.22;;;1.97;100.00
31285;BME280;56605;51.516;6.742;2023-01-31T01:33:18;102277.16;;;2.03;100.00
31285;BME280;56605;51.516;6.742;2023-01-31T01:35:43;102268.22;;;2.06;100.00
31285;BME280;56605;51.516;6.742;2023-01-31T01:38:09;102267.31;;;2.07;100.00
31285;BME280;56605;51.516;6.742;2023-01-31T01:40:35;102257.41;;;2.12;100.00
31285;BME280;56605;51.516;6.742;2023-01-31T01:43:01;102256.31;;;2.17;100.00
31285;BME280;56605;51.516;6.742;2023-01-31T01:45:27;102264.44;;;2.12;100.00
31285;BME280;56605;51.516;6.742;2023-01-31T01:47:55;102260.69;;;2.18;100.00
31285;BME280;56605;51.516;6.742;2023-01-31T01:50:29;102261.44;;;2.20;100.00
31285;BME280;56605;51.516;6.742;2023-01-31T01:53:18;102255.16;;;2.22;100.00
31285;BME280;56605;51.516;6.742;2023-01-31T01:55:57;102256.88;;;2.23;100.00
31285;BME280;56605;51.516;6.742;2023-01-31T01:58:26;102256.81;;;2.25;100.00
31285;BME280;56605;51.516;6.742;2023-01-31T02:00:54;102256.88;;;2.23;100.00
31285;BME280;56605;51.516;6.742;2023-01-31T02:03:20;102260.34;;;2.24;100.00
31285;BME280;56605;51.516;6.742;2023-01-31T02:05:51;102265.84;;;2.19;100.00
31285;BME280;56605;51.516;6.742;2023-01-31T02:08:23;102260.75;;;2.16;100.00
31285;BME280;56605;51.516;6.742;2023-01-31T02:11:07;102260.91;;;2.13;100.00
31285;BME280;56605;51.516;6.742;2023-01-31T02:13:34;102263.91;;;2.05;100.00
31285;BME280;56605;51.516;6.742;2023-01-31T02:15:59;102267.81;;;1.96;100.00
31285;BME280;56605;51.516;6.742;2023-01-31T02:18:25;102277.72;;;1.91;100.00
31285;BME280;56605;51.516;6.742;2023-01-31T02:24:02;102283.22;;;1.86;100.00
31285;BME280;56605;51.516;6.742;2023-01-31T02:33:15;102280.16;;;1.76;100.00
31285;BME280;56605;51.516;6.742;2023-01-31T02:38:47;102277.91;;;1.69;100.00
31285;BME280;56605;51.516;6.742;2023-01-31T02:46:50;102278.72;;;1.69;100.00
31285;BME280;56605;51.516;6.742;2023-01-31T02:49:38;102262.94;;;1.69;100.00
31285;BME280;56605;51.516;6.742;2023-01-31T02:57:53;102267.38;;;1.69;100.00
31285;BME280;56605;51.516;6.742;2023-01-31T03:00:21;102272.47;;;1.72;100.00
31285;BME280;56605;51.516;6.742;2023-01-31T03:02:48;102259.28;;;1.72;100.00
31285;BME280;56605;51.516;6.742;2023-01-31T03:05:14;102261.09;;;1.71;100.00
31285;BME280;56605;51.516;6.742;2023-01-31T03:07:41;102262.66;;;1.75;100.00
31285;BME280;56605;51.516;6.742;2023-01-31T03:10:17;102260.75;;;1.79;100.00
31285;BME280;56605;51.516;6.742;2023-01-31T03:12:52;102250.13;;;1.81;100.00
31285;BME280;56605;51.516;6.742;2023-01-31T03:15:25;102249.28;;;1.80;100.00
31285;BME280;56605;51.516;6.742;2023-01-31T03:18:16;102245.69;;;1.81;100.00
31285;BME280;56605;51.516;6.742;2023-01-31T03:20:52;102240.44;;;1.81;100.00
31285;BME280;56605;51.516;6.742;2023-01-31T03:23:21;102231.06;;;1.75;100.00
31285;BME280;56605;51.516;6.742;2023-01-31T03:25:50;102240.03;;;1.71;100.00
31285;BME280;56605;51.516;6.742;2023-01-31T03:28:21;102243.59;;;1.70;100.00
31285;BME280;56605;51.516;6.742;2023-01-31T03:30:50;102238.47;;;1.67;100.00
31285;BME280;56605;51.516;6.742;2023-01-31T03:33:24;102239.31;;;1.68;100.00
31285;BME280;56605;51.516;6.742;2023-01-31T03:35:56;102239.22;;;1.69;100.00
31285;BME280;56605;51.516;6.742;2023-01-31T03:38:43;102243.13;;;1.80;100.00
31285;BME280;56605;51.516;6.742;2023-01-31T03:44:11;102226.25;;;1.84;100.00
31285;BME280;56605;51.516;6.742;2023-01-31T03:46:42;102214.69;;;1.88;100.00
31285;BME280;56605;51.516;6.742;2023-01-31T03:49:12;102208.78;;;2.00;100.00
31285;BME280;56605;51.516;6.742;2023-01-31T03:51:43;102206.94;;;2.02;100.00
31285;BME280;56605;51.516;6.742;2023-01-31T03:54:16;102198.19;;;2.02;100.00
31285;BME280;56605;51.516;6.742;2023-01-31T03:56:52;102189.53;;;2.00;100.00
31285;BME280;56605;51.516;6.742;2023-01-31T03:59:24;102199.13;;;2.01;100.00
31285;BME280;56605;51.516;6.742;2023-01-31T04:01:54;102184.00;;;2.05;100.00
31285;BME280;56605;51.516;6.742;2023-01-31T04:04:23;102190.13;;;2.05;100.00
31285;BME280;56605;51.516;6.742;2023-01-31T04:06:49;102197.97;;;2.07;100.00
31285;BME280;56605;51.516;6.742;2023-01-31T04:09:15;102186.41;;;2.09;100.00
31285;BME280;56605;51.516;6.742;2023-01-31T04:11:41;102189.97;;;2.08;100.00
31285;BME280;56605;51.516;6.742;2023-01-31T04:14:07;102184.94;;;2.03;100.00
31285;BME280;56605;51.516;6.742;2023-01-31T04:16:32;102182.44;;;2.00;100.00
31285;BME280;56605;51.516;6.742;2023-01-31T04:18:58;102186.88;;;2.00;100.00
31285;BME280;56605;51.516;6.742;2023-01-31T04:21:23;102176.34;;;2.00;100.00
31285;BME280;56605;51.516;6.742;2023-01-31T04:23:49;102174.53;;;2.00;100.00
31285;BME280;56605;51.516;6.742;2023-01-31T04:26:14;102192.91;;;2.02;100.00
31285;BME280;56605;51.516;6.742;2023-01-31T04:28:40;102198.19;;;2.02;100.00
31285;BME280;56605;51.516;6.742;2023-01-31T04:31:05;102202.50;;;2.03;100.00
31285;BME280;56605;51.516;6.742;2023-01-31T04:33:31;102199.94;;;2.01;100.00
31285;BME280;56605;51.516;6.742;2023-01-31T04:35:56;102200.75;;;2.03;100.00
31285;BME280;56605;51.516;6.742;2023-01-31T04:38:22;102195.47;;;2.03;100.00
31285;BME280;56605;51.516;6.742;2023-01-31T04:40:47;102205.06;;;2.05;100.00
31285;BME280;56605;51.516;6.742;2023-01-31T04:43:12;102197.97;;;2.07;100.00
31285;BME280;56605;51.516;6.742;2023-01-31T04:45:38;102203.16;;;2.08;100.00
31285;BME280;56605;51.516;6.742;2023-01-31T04:48:04;102196.13;;;2.09;100.00
31285;BME280;56605;51.516;6.742;2023-01-31T04:50:29;102189.84;;;2.11;100.00
31285;BME280;56605;51.516;6.742;2023-01-31T04:52:54;102194.16;;;2.12;100.00
31285;BME280;56605;51.516;6.742;2023-01-31T04:55:20;102182.75;;;2.12;100.00
31285;BME280;56605;51.516;6.742;2023-01-31T04:57:46;102196.56;;;2.17;100.00
31285;BME280;56605;51.516;6.742;2023-01-31T05:00:11;102186.78;;;2.19;100.00
31285;BME280;56605;51.516;6.742;2023-01-31T05:02:37;102189.34;;;2.21;100.00
31285;BME280;56605;51.516;6.742;2023-01-31T05:05:03;102191.09;;;2.22;100.00
31285;BME280;56605;51.516;6.742;2023-01-31T05:07:29;102182.25;;;2.23;100.00
31285;BME280;56605;51.516;6.742;2023-01-31T05:09:54;102187.22;;;2.29;100.00
31285;BME280;56605;51.516;6.742;2023-01-31T05:12:20;102178.38;;;2.30;100.00
31285;BME280;56605;51.516;6.742;2023-01-31T05:14:45;102176.59;;;2.31;100.00
31285;BME280;56605;51.516;6.742;2023-01-31T05:17:10;102175.81;;;2.28;100.00
31285;BME280;56605;51.516;6.742;2023-01-31T05:19:36;102177.69;;;2.26;100.00
31285;BME280;56605;51.516;6.742;2023-01-31T05:22:01;102172.34;;;2.28;100.00
31285;BME280;56605;51.516;6.742;2023-01-31T05:24:28;102173.41;;;2.24;100.00
31285;BME280;56605;51.516;6.742;2023-01-31T05:26:55;102163.72;;;2.24;100.00
31285;BME280;56605;51.516;6.742;2023-01-31T05:29:24;102154.25;;;2.20;100.00
31285;BME280;56605;51.516;6.742;2023-01-31T05:31:54;102154.19;;;2.22;100.00
31285;BME280;56605;51.516;6.742;2023-01-31T05:34:23;102156.75;;;2.23;100.00
31285;BME280;56605;51.516;6.742;2023-01-31T05:36:50;102157.66;;;2.22;100.00
31285;BME280;56605;51.516;6.742;2023-01-31T05:39:15;102153.88;;;2.28;100.00
31285;BME280;56605;51.516;6.742;2023-01-31T05:41:41;102145.88;;;2.30;100.00
31285;BME280;56605;51.516;6.742;2023-01-31T05:44:06;102139.84;;;2.27;100.00
31285;BME280;56605;51.516;6.742;2023-01-31T05:46:31;102132.69;;;2.30;100.00
31285;BME280;56605;51.516;6.742;2023-01-31T05:48:56;102129.81;;;2.34;100.00
31285;BME280;56605;51.516;6.742;2023-01-31T05:51:22;102121.00;;;2.35;100.00
31285;BME280;56605;51.516;6.742;2023-01-31T05:53:47;102116.25;;;2.42;100.00
31285;BME280;56605;51.516;6.742;2023-01-31T05:56:13;102114.06;;;2.50;100.00
31285;BME280;56605;51.516;6.742;2023-01-31T05:58:38;102096.22;;;2.56;100.00
31285;BME280;56605;51.516;6.742;2023-01-31T06:01:04;102104.72;;;2.61;100.00
31285;BME280;56605;51.516;6.742;2023-01-31T06:06:04;102107.75;;;2.71;100.00
31285;BME280;56605;51.516;6.742;2023-01-31T06:08:30;102117.53;;;2.69;100.00
31285;BME280;56605;51.516;6.742;2023-01-31T06:10:55;102114.22;;;2.65;100.00
31285;BME280;56605;51.516;6.742;2023-01-31T06:13:21;102109.94;;;2.62;100.00
31285;BME280;56605;51.516;6.742;2023-01-31T06:15:48;102117.75;;;2.64;100.00
31285;BME280;56605;51.516;6.742;2023-01-31T06:18:14;102113.50;;;2.61;100.00
31285;BME280;56605;51.516;6.742;2023-01-31T06:20:39;102114.53;;;2.59;100.00
31285;BME280;56605;51.516;6.742;2023-01-31T06:23:04;102113.19;;;2.68;100.00
31285;BME280;56605;51.516;6.742;2023-01-31T06:25:30;102105.28;;;2.68;100.00
31285;BME280;56605;51.516;6.742;2023-01-31T06:27:55;102107.06;;;2.67;100.00
31285;BME280;56605;51.516;6.742;2023-01-31T06:30:21;102103.47;;;2.68;100.00
31285;BME280;56605;51.516;6.742;2023-01-31T06:32:46;102113.19;;;2.68;100.00
31285;BME280;56605;51.516;6.742;2023-01-31T06:35:12;102121.19;;;2.66;100.00
31285;BME280;56605;51.516;6.742;2023-01-31T06:37:37;102113.19;;;2.68;100.00
31285;BME280;56605;51.516;6.742;2023-01-31T06:40:03;102105.94;;;2.71;100.00
31285;BME280;56605;51.516;6.742;2023-01-31T06:42:28;102109.44;;;2.72;100.00
31285;BME280;56605;51.516;6.742;2023-01-31T06:44:53;102123.72;;;2.68;100.00
31285;BME280;56605;51.516;6.742;2023-01-31T06:47:18;102116.56;;;2.70;100.00
31285;BME280;56605;51.516;6.742;2023-01-31T06:49:44;102124.31;;;2.73;100.00
31285;BME280;56605;51.516;6.742;2023-01-31T06:52:09;102121.59;;;2.74;100.00
31285;BME280;56605;51.516;6.742;2023-01-31T06:54:34;102118.88;;;2.76;100.00
31285;BME280;56605;51.516;6.742;2023-01-31T06:57:00;102123.34;;;2.75;100.00
31285;BME280;56605;51.516;6.742;2023-01-31T06:59:25;102121.44;;;2.77;100.00
31285;BME280;56605;51.516;6.742;2023-01-31T07:01:50;102109.22;;;2.76;100.00
31285;BME280;56605;51.516;6.742;2023-01-31T07:04:16;102109.97;;;2.78;100.00
31285;BME280;56605;51.516;6.742;2023-01-31T07:06:41;102119.50;;;2.81;100.00
31285;BME280;56605;51.516;6.742;2023-01-31T07:09:06;102122.97;;;2.82;100.00
31285;BME280;56605;51.516;6.742;2023-01-31T07:11:32;102108.88;;;2.83;100.00
31285;BME280;56605;51.516;6.742;2023-01-31T07:13:57;102115.06;;;2.82;100.00
31285;BME280;56605;51.516;6.742;2023-01-31T07:16:22;102106.25;;;2.83;100.00
31285;BME280;56605;51.516;6.742;2023-01-31T07:18:53;102101.88;;;2.82;100.00
31285;BME280;56605;51.516;6.742;2023-01-31T07:21:19;102097.47;;;2.82;100.00
31285;BME280;56605;51.516;6.742;2023-01-31T07:23:45;102108.09;;;2.81;100.00
31285;BME280;56605;51.516;6.742;2023-01-31T07:26:10;102111.53;;;2.83;100.00
31285;BME280;56605;51.516;6.742;2023-01-31T07:28:35;102115.00;;;2.83;100.00
31285;BME280;56605;51.516;6.742;2023-01-31T07:31:11;102108.88;;;2.83;100.00
31285;BME280;56605;51.516;6.742;2023-01-31T07:33:38;102110.75;;;2.81;100.00
31285;BME280;56605;51.516;6.742;2023-01-31T07:36:05;102103.69;;;2.81;100.00
31285;BME280;56605;51.516;6.742;2023-01-31T07:38:32;102104.28;;;2.86;100.00
31285;BME280;56605;51.516;6.742;2023-01-31T07:40:59;102101.47;;;2.89;100.00
31285;BME280;56605;51.516;6.742;2023-01-31T07:43:25;102092.63;;;2.90;100.00
31285;BME280;56605;51.516;6.742;2023-01-31T07:45:50;102088.13;;;2.92;100.00
31285;BME280;56605;51.516;6.742;2023-01-31T07:48:15;102083.63;;;2.95;100.00
31285;BME280;56605;51.516;6.742;2023-01-31T07:50:41;102076.44;;;2.97;100.00
31285;BME280;56605;51.516;6.742;2023-01-31T07:53:06;102078.94;;;3.00;100.00
31285;BME280;56605;51.516;6.742;2023-01-31T07:55:31;102075.34;;;3.01;100.00
31285;BME280;56605;51.516;6.742;2023-01-31T07:57:56;102077.16;;;3.00;100.00
31285;BME280;56605;51.516;6.742;2023-01-31T08:00:22;102073.50;;;3.03;100.00
31285;BME280;56605;51.516;6.742;2023-01-31T08:03:22;102084.91;;;3.03;100.00
31285;BME280;56605;51.516;6.742;2023-01-31T08:05:57;102077.81;;;3.04;100.00
31285;BME280;56605;51.516;6.742;2023-01-31T08:08:22;102074.34;;;3.03;100.00
31285;BME280;56605;51.516;6.742;2023-01-31T08:10:47;102077.06;;;3.02;100.00
31285;BME280;56605;51.516;6.742;2023-01-31T08:13:13;102075.19;;;3.04;100.00
31285;BME280;56605;51.516;6.742;2023-01-31T08:15:38;102081.47;;;3.01;100.00
31285;BME280;56605;51.516;6.742;2023-01-31T08:18:03;102076.44;;;2.97;100.00
31285;BME280;56605;51.516;6.742;2023-01-31T08:20:28;102080.38;;;2.89;100.00
31285;BME280;56605;51.516;6.742;2023-01-31T08:22:55;102071.00;;;2.84;100.00
31285;BME280;56605;51.516;6.742;2023-01-31T08:25:22;102071.34;;;2.77;100.00
31285;BME280;56605;51.516;6.742;2023-01-31T08:27:48;102074.06;;;2.76;100.00
31285;BME280;56605;51.516;6.742;2023-01-31T08:30:13;102055.59;;;2.76;100.00
31285;BME280;56605;51.516;6.742;2023-01-31T08:32:38;102045.91;;;2.76;100.00
31285;BME280;56605;51.516;6.742;2023-01-31T08:35:04;102046.56;;;2.80;100.00
31285;BME280;56605;51.516;6.742;2023-01-31T08:37:29;102040.97;;;2.86;100.00
31285;BME280;56605;51.516;6.742;2023-01-31T08:39:56;102032.72;;;2.92;100.00
31285;BME280;56605;51.516;6.742;2023-01-31T08:42:22;102041.03;;;3.01;100.00
31285;BME280;56605;51.516;6.742;2023-01-31T08:44:47;102034.56;;;3.07;100.00
31285;BME280;56605;51.516;6.742;2023-01-31T08:47:12;102032.53;;;3.12;100.00
31285;BME280;56605;51.516;6.742;2023-01-31T08:49:37;102019.91;;;3.17;100.00
31285;BME280;56605;51.516;6.742;2023-01-31T08:52:04;102010.06;;;3.21;100.00
31285;BME280;56605;51.516;6.742;2023-01-31T08:54:30;102016.94;;;3.23;100.00
31285;BME280;56605;51.516;6.742;2023-01-31T08:56:55;102012.34;;;3.27;100.00
31285;BME280;56605;51.516;6.742;2023-01-31T08:59:20;102003.47;;;3.28;100.00
31285;BME280;56605;51.516;6.742;2023-01-31T09:01:45;102005.59;;;3.37;100.00
31285;BME280;56605;51.516;6.742;2023-01-31T09:04:12;102010.63;;;3.42;100.00
31285;BME280;56605;51.516;6.742;2023-01-31T09:06:37;102017.59;;;3.43;100.00
31285;BME280;56605;51.516;6.742;2023-01-31T09:09:02;102001.66;;;3.45;100.00
31285;BME280;56605;51.516;6.742;2023-01-31T09:11:29;102001.56;;;3.46;100.00
31285;BME280;56605;51.516;6.742;2023-01-31T09:13:55;101998.66;;;3.51;100.00
31285;BME280;56605;51.516;6.742;2023-01-31T09:16:21;102001.00;;;3.55;100.00
31285;BME280;56605;51.516;6.742;2023-01-31T09:18:46;101989.91;;;3.65;100.00
31285;BME280;56605;51.516;6.742;2023-01-31T09:21:14;102005.75;;;3.65;100.00
31285;BME280;56605;51.516;6.742;2023-01-31T09:23:40;101991.78;;;3.63;100.00
31285;BME280;56605;51.516;6.742;2023-01-31T09:26:06;101988.31;;;3.62;100.00
31285;BME280;56605;51.516;6.742;2023-01-31T09:28:31;101990.88;;;3.64;100.00
31285;BME280;56605;51.516;6.742;2023-01-31T09:31:06;101988.88;;;3.67;100.00
31285;BME280;56605;51.516;6.742;2023-01-31T09:33:33;101986.13;;;3.69;100.00
31285;BME280;56605;51.516;6.742;2023-01-31T09:36:05;101987.88;;;3.70;100.00
31285;BME280;56605;51.516;6.742;2023-01-31T09:38:31;101981.63;;;3.71;100.00
31285;BME280;56605;51.516;6.742;2023-01-31T09:41:00;101974.44;;;3.73;100.00
31285;BME280;56605;51.516;6.742;2023-01-31T09:43:28;101968.88;;;3.78;100.00
31285;BME280;56605;51.516;6.742;2023-01-31T09:45:58;101967.09;;;3.78;100.00
31285;BME280;56605;51.516;6.742;2023-01-31T09:48:28;101970.69;;;3.77;100.00
31285;BME280;56605;51.516;6.742;2023-01-31T09:50:57;101968.88;;;3.78;100.00
31285;BME280;56605;51.516;6.742;2023-01-31T09:53:28;101965.88;;;3.84;100.00
31285;BME280;56605;51.516;6.742;2023-01-31T09:58:55;101958.81;;;3.99;100.00
31285;BME280;56605;51.516;6.742;2023-01-31T10:06:48;101947.47;;;4.12;100.00
31285;BME280;56605;51.516;6.742;2023-01-31T10:11:46;101947.78;;;4.22;100.00
31285;BME280;56605;51.516;6.742;2023-01-31T10:14:34;101947.59;;;4.25;100.00
31285;BME280;56605;51.516;6.742;2023-01-31T10:17:09;101942.28;;;4.25;100.00
31285;BME280;56605;51.516;6.742;2023-01-31T10:22:15;101926.59;;;4.36;100.00
31285;BME280;56605;51.516;6.742;2023-01-31T10:24:48;101927.50;;;4.50;100.00
31285;BME280;56605;51.516;6.742;2023-01-31T10:27:41;101936.09;;;4.53;100.00
31285;BME280;56605;51.516;6.742;2023-01-31T10:30:18;101934.59;;;4.49;100.00
31285;BME280;56605;51.516;6.742;2023-01-31T10:32:50;101940.84;;;4.48;100.00
31285;BME280;56605;51.516;6.742;2023-01-31T10:35:34;101939.03;;;4.49;100.00
31285;BME280;56605;51.516;6.742;2023-01-31T10:38:14;101942.81;;;4.44;100.00
31285;BME280;56605;51.516;6.742;2023-01-31T10:40:44;101941.56;;;4.50;100.00
31285;BME280;56605;51.516;6.742;2023-01-31T10:43:20;101926.47;;;4.52;100.00
31285;BME280;56605;51.516;6.742;2023-01-31T10:45:46;101933.28;;;4.69;100.00
31285;BME280;56605;51.516;6.742;2023-01-31T10:48:17;101932.19;;;4.74;100.00
31285;BME280;56605;51.516;6.742;2023-01-31T10:50:48;101943.50;;;4.76;100.00
31285;BME280;56605;51.516;6.742;2023-01-31T10:58:46;101917.69;;;4.79;100.00
31285;BME280;56605;51.516;6.742;2023-01-31T11:01:11;101903.94;;;4.87;100.00
31285;BME280;56605;51.516;6.742;2023-01-31T11:03:40;101896.66;;;4.91;100.00
31285;BME280;56605;51.516;6.742;2023-01-31T11:06:10;101904.41;;;4.94;100.00
31285;BME280;56605;51.516;6.742;2023-01-31T11:08:44;101907.16;;;4.92;100.00
31285;BME280;56605;51.516;6.742;2023-01-31T11:11:13;101902.81;;;4.91;100.00
31285;BME280;56605;51.516;6.742;2023-01-31T11:14:04;101899.50;;;4.88;100.00
31285;BME280;56605;51.516;6.742;2023-01-31T11:16:35;101890.72;;;4.87;100.00
31285;BME280;56605;51.516;6.742;2023-01-31T11:19:03;101892.22;;;4.91;100.00
31285;BME280;56605;51.516;6.742;2023-01-31T11:21:37;101889.47;;;4.93;100.00
31285;BME280;56605;51.516;6.742;2023-01-31T11:24:23;101900.69;;;4.97;100.00
31285;BME280;56605;51.516;6.742;2023-01-31T11:26:57;101900.06;;;4.93;100.00
31285;BME280;56605;51.516;6.742;2023-01-31T11:29:37;101894.13;;;4.89;100.00
31285;BME280;56605;51.516;6.742;2023-01-31T11:32:17;101890.31;;;4.93;100.00
31285;BME280;56605;51.516;6.742;2023-01-31T11:35:03;101880.56;;;4.94;100.00
31285;BME280;56605;51.516;6.742;2023-01-31T11:37:31;101887.47;;;4.97;100.00
31285;BME280;56605;51.516;6.742;2023-01-31T11:40:02;101877.84;;;4.95;100.00
31285;BME280;56605;51.516;6.742;2023-01-31T11:42:28;101868.94;;;4.97;100.00
31285;BME280;56605;51.516;6.742;2023-01-31T11:44:58;101864.59;;;4.95;100.00
31285;BME280;56605;51.516;6.742;2023-01-31T11:47:27;101870.84;;;4.94;100.00
31285;BME280;56605;51.516;6.742;2023-01-31T11:49:55;101870.50;;;4.99;100.00
31285;BME280;56605;51.516;6.742;2023-01-31T11:52:26;101869.78;;;4.97;100.00
31285;BME280;56605;51.516;6.742;2023-01-31T11:55:05;101879.31;;;5.00;100.00
31285;BME280;56605;51.516;6.742;2023-01-31T11:57:34;101859.31;;;4.95;100.00
31285;BME280;56605;51.516;6.742;2023-01-31T12:00:03;101859.31;;;4.95;100.00
31285;BME280;56605;51.516;6.742;2023-01-31T12:02:38;101860.28;;;5.07;100.00
31285;BME280;56605;51.516;6.742;2023-01-31T12:05:12;101873.22;;;5.12;100.00
31285;BME280;56605;51.516;6.742;2023-01-31T12:07:46;101871.28;;;5.14;100.00
31285;BME280;56605;51.516;6.742;2023-01-31T12:10:35;101866.75;;;5.16;100.00
31285;BME280;56605;51.516;6.742;2023-01-31T12:13:18;101864.41;;;5.12;100.00
31285;BME280;56605;51.516;6.742;2023-01-31T12:15:47;101866.75;;;5.16;100.00
31285;BME280;56605;51.516;6.742;2023-01-31T12:18:23;101864.00;;;5.18;100.00
31285;BME280;56605;51.516;6.742;2023-01-31T12:21:05;101865.38;;;5.24;100.00
31285;BME280;56605;51.516;6.742;2023-01-31T12:23:51;101849.91;;;5.30;100.00
31285;BME280;56605;51.516;6.742;2023-01-31T12:29:42;101834.97;;;5.42;100.00
31285;BME280;56605;51.516;6.742;2023-01-31T12:32:23;101835.31;;;5.51;100.00
31285;BME280;56605;51.516;6.742;2023-01-31T12:37:59;101819.28;;;5.52;100.00
31285;BME280;56605;51.516;6.742;2023-01-31T13:08:53;101826.72;;;5.21;100.00
31285;BME280;56605;51.516;6.742;2023-01-31T13:11:26;101824.28;;;5.18;100.00
31285;BME280;56605;51.516;6.742;2023-01-31T13:13:58;101822.06;;;5.12;100.00
31285;BME280;56605;51.516;6.742;2023-01-31T13:16:28;101829.69;;;5.03;100.00
31285;BME280;56605;51.516;6.742;2023-01-31T13:18:57;101824.03;;;4.95;100.00
31285;BME280;56605;51.516;6.742;2023-01-31T13:21:28;101825.41;;;4.88;100.00
31285;BME280;56605;51.516;6.742;2023-01-31T13:24:02;101837.47;;;4.79;100.00
31285;BME280;56605;51.516;6.742;2023-01-31T13:26:41;101834.81;;;4.79;100.00
31285;BME280;56605;51.516;6.742;2023-01-31T13:31:56;101825.31;;;4.89;100.00
31285;BME280;56605;51.516;6.742;2023-01-31T13:34:51;101843.31;;;4.84;100.00
31285;BME280;56605;51.516;6.742;2023-01-31T13:37:20;101824.03;;;4.82;100.00
31285;BME280;56605;51.516;6.742;2023-01-31T13:39:49;101826.47;;;4.85;100.00
31285;BME280;56605;51.516;6.742;2023-01-31T13:42:16;101830.38;;;4.79;100.00
31285;BME280;56605;51.516;6.742;2023-01-31T13:44:43;101832.28;;;4.77;100.00
31285;BME280;56605;51.516;6.742;2023-01-31T13:47:17;101833.13;;;4.78;100.00
31285;BME280;56605;51.516;6.742;2023-01-31T13:49:55;64886.44;;;-150.46;100.00
31285;BME280;56605;51.516;6.742;2023-01-31T13:52:30;64886.44;;;-150.46;100.00
31285;BME280;56605;51.516;6.742;2023-01-31T13:55:04;64886.44;;;-150.46;100.00
31285;BME280;56605;51.516;6.742;2023-01-31T13:57:33;64886.44;;;-150.46;100.00
31285;BME280;56605;51.516;6.742;2023-01-31T14:00:11;64886.44;;;-150.46;100.00
31285;BME280;56605;51.516;6.742;2023-01-31T14:03:09;64886.44;;;-150.46;100.00
31285;BME280;56605;51.516;6.742;2023-01-31T14:10:50;64886.44;;;-150.46;100.00
31285;BME280;56605;51.516;6.742;2023-01-31T14:13:23;64886.44;;;-150.46;100.00
31285;BME280;56605;51.516;6.742;2023-01-31T14:15:51;64886.44;;;-150.46;100.00
31285;BME280;56605;51.516;6.742;2023-01-31T14:29:08;64886.44;;;-150.46;100.00
31285;BME280;56605;51.516;6.742;2023-01-31T14:31:34;64886.44;;;-150.46;100.00
31285;BME280;56605;51.516;6.742;2023-01-31T14:34:01;64886.44;;;-150.46;100.00
31285;BME280;56605;51.516;6.742;2023-01-31T14:39:33;64886.44;;;-150.46;100.00
31285;BME280;56605;51.516;6.742;2023-01-31T14:44:50;64886.44;;;-150.46;100.00
31285;BME280;56605;51.516;6.742;2023-01-31T14:47:33;64886.44;;;-150.46;100.00